sensor_id;sensor_type;location;lat;lon;timestamp;P1;durP1;ratioP1;P2;durP2;ratioP2
19593;SDS011;9944;48.240;16.478;2024-03-02T00:03:31;27.45;;;15.07;;
19593;SDS011;9944;48.240;16.478;2024-03-02T00:07:55;27.15;;;16.50;;
19593;SDS011;9944;48.240;16.478;2024-03-02T00:12:20;21.20;;;12.38;;
19593;SDS011;9944;48.240;16.478;2024-03-02T00:16:44;26.08;;;14.10;;
19593;SDS011;9944;48.240;16.478;2024-03-02T00:21:09;23.30;;;13.07;;
19593;SDS011;9944;48.240;16.478;2024-03-02T00:25:36;23.42;;;13.77;;
19593;SDS011;9944;48.240;16.478;2024-03-02T00:30:01;20.17;;;12.52;;
19593;SDS011;9944;48.240;16.478;2024-03-02T00:34:47;29.58;;;15.60;;
19593;SDS011;9944;48.240;16.478;2024-03-02T00:39:12;28.65;;;15.82;;
19593;SDS011;9944;48.240;16.478;2024-03-02T00:43:43;30.30;;;15.85;;
19593;SDS011;9944;48.240;16.478;2024-03-02T00:48:10;32.92;;;17.73;;
19593;SDS011;9944;48.240;16.478;2024-03-02T00:52:34;30.80;;;16.85;;
19593;SDS011;9944;48.240;16.478;2024-03-02T00:56:59;19.27;;;12.20;;
19593;SDS011;9944;48.240;16.478;2024-03-02T01:01:23;28.77;;;15.02;;
19593;SDS011;9944;48.240;16.478;2024-03-02T01:05:47;28.70;;;15.75;;
19593;SDS011;9944;48.240;16.478;2024-03-02T01:10:11;25.77;;;14.93;;
19593;SDS011;9944;48.240;16.478;2024-03-02T01:14:36;29.88;;;16.10;;
19593;SDS011;9944;48.240;16.478;2024-03-02T01:19:00;24.50;;;14.57;;
19593;SDS011;9944;48.240;16.478;2024-03-02T01:23:24;29.23;;;16.75;;
19593;SDS011;9944;48.240;16.478;2024-03-02T01:27:48;27.15;;;15.70;;
19593;SDS011;9944;48.240;16.478;2024-03-02T01:32:13;29.80;;;15.68;;
19593;SDS011;9944;48.240;16.478;2024-03-02T01:36:38;29.77;;;15.85;;
19593;SDS011;9944;48.240;16.478;2024-03-02T01:41:01;24.35;;;14.20;;
19593;SDS011;9944;48.240;16.478;2024-03-02T01:45:25;26.95;;;14.95;;
19593;SDS011;9944;48.240;16.478;2024-03-02T01:49:52;25.83;;;13.95;;
19593;SDS011;9944;48.240;16.478;2024-03-02T01:54:16;25.88;;;14.10;;
19593;SDS011;9944;48.240;16.478;2024-03-02T01:58:39;23.98;;;13.05;;
19593;SDS011;9944;48.240;16.478;2024-03-02T02:03:03;25.85;;;15.02;;
19593;SDS011;9944;48.240;16.478;2024-03-02T02:07:29;27.08;;;15.30;;
19593;SDS011;9944;48.240;16.478;2024-03-02T02:11:53;20.13;;;11.82;;
19593;SDS011;9944;48.240;16.478;2024-03-02T02:16:17;24.55;;;13.63;;
19593;SDS011;9944;48.240;16.478;2024-03-02T02:20:41;29.83;;;15.85;;
19593;SDS011;9944;48.240;16.478;2024-03-02T02:25:06;24.73;;;14.48;;
19593;SDS011;9944;48.240;16.478;2024-03-02T02:29:30;19.35;;;11.60;;
19593;SDS011;9944;48.240;16.478;2024-03-02T02:33:53;18.77;;;11.50;;
19593;SDS011;9944;48.240;16.478;2024-03-02T02:38:17;18.92;;;11.32;;
19593;SDS011;9944;48.240;16.478;2024-03-02T02:42:43;21.35;;;13.18;;
19593;SDS011;9944;48.240;16.478;2024-03-02T02:47:07;29.70;;;15.10;;
19593;SDS011;9944;48.240;16.478;2024-03-02T02:51:30;28.30;;;15.52;;
19593;SDS011;9944;48.240;16.478;2024-03-02T02:55:54;24.17;;;13.98;;
19593;SDS011;9944;48.240;16.478;2024-03-02T03:00:19;30.75;;;14.38;;
19593;SDS011;9944;48.240;16.478;2024-03-02T03:04:45;24.92;;;13.88;;
19593;SDS011;9944;48.240;16.478;2024-03-02T03:09:08;22.60;;;12.80;;
19593;SDS011;9944;48.240;16.478;2024-03-02T03:13:33;24.80;;;14.38;;
19593;SDS011;9944;48.240;16.478;2024-03-02T03:17:58;27.15;;;14.07;;
19593;SDS011;9944;48.240;16.478;2024-03-02T03:22:22;22.77;;;13.88;;
19593;SDS011;9944;48.240;16.478;2024-03-02T03:26:45;28.35;;;15.90;;
19593;SDS011;9944;48.240;16.478;2024-03-02T03:31:09;28.40;;;15.05;;
19593;SDS011;9944;48.240;16.478;2024-03-02T03:35:34;26.27;;;13.63;;
19593;SDS011;9944;48.240;16.478;2024-03-02T03:39:58;27.23;;;15.85;;
19593;SDS011;9944;48.240;16.478;2024-03-02T03:44:22;30.60;;;15.77;;
19593;SDS011;9944;48.240;16.478;2024-03-02T03:48:46;30.58;;;14.35;;
19593;SDS011;9944;48.240;16.478;2024-03-02T03:53:11;24.77;;;14.38;;
19593;SDS011;9944;48.240;16.478;2024-03-02T03:57:36;25.73;;;14.25;;
19593;SDS011;9944;48.240;16.478;2024-03-02T04:02:00;25.58;;;13.73;;
19593;SDS011;9944;48.240;16.478;2024-03-02T04:06:24;25.02;;;13.88;;
19593;SDS011;9944;48.240;16.478;2024-03-02T04:10:49;22.48;;;12.02;;
19593;SDS011;9944;48.240;16.478;2024-03-02T04:15:14;19.88;;;11.75;;
19593;SDS011;9944;48.240;16.478;2024-03-02T04:19:37;17.67;;;11.43;;
19593;SDS011;9944;48.240;16.478;2024-03-02T04:24:01;18.88;;;11.30;;
19593;SDS011;9944;48.240;16.478;2024-03-02T04:28:25;20.98;;;12.65;;
19593;SDS011;9944;48.240;16.478;2024-03-02T04:32:49;22.27;;;12.48;;
19593;SDS011;9944;48.240;16.478;2024-03-02T04:37:13;22.05;;;12.57;;
19593;SDS011;9944;48.240;16.478;2024-03-02T04:41:37;21.67;;;12.05;;
19593;SDS011;9944;48.240;16.478;2024-03-02T04:46:02;26.27;;;13.68;;
19593;SDS011;9944;48.240;16.478;2024-03-02T04:50:25;23.00;;;12.70;;
19593;SDS011;9944;48.240;16.478;2024-03-02T04:54:49;23.17;;;13.18;;
19593;SDS011;9944;48.240;16.478;2024-03-02T04:59:41;23.27;;;12.15;;
19593;SDS011;9944;48.240;16.478;2024-03-02T05:04:06;23.75;;;12.85;;
19593;SDS011;9944;48.240;16.478;2024-03-02T05:08:30;22.52;;;12.32;;
19593;SDS011;9944;48.240;16.478;2024-03-02T05:12:53;21.00;;;13.07;;
19593;SDS011;9944;48.240;16.478;2024-03-02T05:17:22;23.50;;;13.07;;
19593;SDS011;9944;48.240;16.478;2024-03-02T05:21:47;26.60;;;14.57;;
19593;SDS011;9944;48.240;16.478;2024-03-02T05:26:12;24.63;;;13.13;;
19593;SDS011;9944;48.240;16.478;2024-03-02T05:30:35;20.50;;;12.40;;
19593;SDS011;9944;48.240;16.478;2024-03-02T05:34:59;27.90;;;15.23;;
19593;SDS011;9944;48.240;16.478;2024-03-02T05:39:24;27.73;;;13.90;;
19593;SDS011;9944;48.240;16.478;2024-03-02T05:43:48;22.90;;;13.25;;
19593;SDS011;9944;48.240;16.478;2024-03-02T05:48:12;27.70;;;14.75;;
19593;SDS011;9944;48.240;16.478;2024-03-02T05:52:35;27.80;;;14.75;;
19593;SDS011;9944;48.240;16.478;2024-03-02T05:57:00;27.20;;;15.00;;
19593;SDS011;9944;48.240;16.478;2024-03-02T06:01:39;30.25;;;14.40;;
19593;SDS011;9944;48.240;16.478;2024-03-02T06:06:03;25.42;;;14.18;;
19593;SDS011;9944;48.240;16.478;2024-03-02T06:10:07;29.42;;;15.15;;
19593;SDS011;9944;48.240;16.478;2024-03-02T06:14:16;33.45;;;16.05;;
19593;SDS011;9944;48.240;16.478;2024-03-02T06:18:19;31.65;;;15.38;;
19593;SDS011;9944;48.240;16.478;2024-03-02T06:22:22;30.60;;;15.10;;
19593;SDS011;9944;48.240;16.478;2024-03-02T06:26:27;32.05;;;16.35;;
19593;SDS011;9944;48.240;16.478;2024-03-02T06:30:32;28.83;;;14.50;;
19593;SDS011;9944;48.240;16.478;2024-03-02T06:34:36;32.95;;;16.48;;
19593;SDS011;9944;48.240;16.478;2024-03-02T06:38:39;30.73;;;14.80;;
19593;SDS011;9944;48.240;16.478;2024-03-02T06:42:44;32.72;;;16.63;;
19593;SDS011;9944;48.240;16.478;2024-03-02T06:46:48;31.73;;;16.05;;
19593;SDS011;9944;48.240;16.478;2024-03-02T06:50:51;32.90;;;16.25;;
19593;SDS011;9944;48.240;16.478;2024-03-02T06:54:54;32.53;;;15.98;;
19593;SDS011;9944;48.240;16.478;2024-03-02T06:58:58;38.92;;;17.55;;
19593;SDS011;9944;48.240;16.478;2024-03-02T07:03:02;32.20;;;16.25;;
19593;SDS011;9944;48.240;16.478;2024-03-02T07:07:06;32.78;;;16.00;;
19593;SDS011;9944;48.240;16.478;2024-03-02T07:11:09;32.28;;;15.77;;
19593;SDS011;9944;48.240;16.478;2024-03-02T07:15:13;35.60;;;17.10;;
19593;SDS011;9944;48.240;16.478;2024-03-02T07:19:47;32.13;;;15.45;;
19593;SDS011;9944;48.240;16.478;2024-03-02T07:23:50;39.90;;;18.70;;
19593;SDS011;9944;48.240;16.478;2024-03-02T07:27:53;38.65;;;17.67;;
19593;SDS011;9944;48.240;16.478;2024-03-02T07:31:57;40.97;;;17.70;;
19593;SDS011;9944;48.240;16.478;2024-03-02T07:36:02;39.53;;;17.83;;
19593;SDS011;9944;48.240;16.478;2024-03-02T07:40:06;36.25;;;17.67;;
19593;SDS011;9944;48.240;16.478;2024-03-02T07:44:12;41.00;;;17.98;;
19593;SDS011;9944;48.240;16.478;2024-03-02T07:48:17;37.25;;;18.08;;
19593;SDS011;9944;48.240;16.478;2024-03-02T07:52:22;32.95;;;17.33;;
19593;SDS011;9944;48.240;16.478;2024-03-02T07:56:25;38.42;;;17.67;;
19593;SDS011;9944;48.240;16.478;2024-03-02T08:00:28;40.42;;;18.55;;
19593;SDS011;9944;48.240;16.478;2024-03-02T08:04:32;35.22;;;16.55;;
19593;SDS011;9944;48.240;16.478;2024-03-02T08:08:36;31.63;;;17.05;;
19593;SDS011;9944;48.240;16.478;2024-03-02T08:12:40;35.95;;;16.73;;
19593;SDS011;9944;48.240;16.478;2024-03-02T08:16:43;40.38;;;19.25;;
19593;SDS011;9944;48.240;16.478;2024-03-02T08:20:48;34.75;;;18.85;;
19593;SDS011;9944;48.240;16.478;2024-03-02T08:24:53;35.95;;;16.27;;
19593;SDS011;9944;48.240;16.478;2024-03-02T08:28:57;38.50;;;18.42;;
19593;SDS011;9944;48.240;16.478;2024-03-02T08:33:00;38.58;;;18.52;;
19593;SDS011;9944;48.240;16.478;2024-03-02T08:37:04;37.70;;;19.75;;
19593;SDS011;9944;48.240;16.478;2024-03-02T08:41:09;37.58;;;18.67;;
19593;SDS011;9944;48.240;16.478;2024-03-02T08:45:15;41.58;;;20.67;;
19593;SDS011;9944;48.240;16.478;2024-03-02T08:49:18;42.03;;;18.98;;
19593;SDS011;9944;48.240;16.478;2024-03-02T08:53:22;41.85;;;19.25;;
19593;SDS011;9944;48.240;16.478;2024-03-02T08:57:26;43.55;;;19.73;;
19593;SDS011;9944;48.240;16.478;2024-03-02T09:01:30;39.28;;;19.05;;
19593;SDS011;9944;48.240;16.478;2024-03-02T09:05:33;39.85;;;19.23;;
19593;SDS011;9944;48.240;16.478;2024-03-02T09:09:37;36.08;;;19.48;;
19593;SDS011;9944;48.240;16.478;2024-03-02T09:13:42;41.08;;;21.08;;
19593;SDS011;9944;48.240;16.478;2024-03-02T09:17:45;36.85;;;19.40;;
19593;SDS011;9944;48.240;16.478;2024-03-02T09:21:49;37.55;;;18.58;;
19593;SDS011;9944;48.240;16.478;2024-03-02T09:25:54;40.90;;;19.00;;
19593;SDS011;9944;48.240;16.478;2024-03-02T09:29:58;38.55;;;18.55;;
19593;SDS011;9944;48.240;16.478;2024-03-02T09:34:02;38.83;;;20.00;;
19593;SDS011;9944;48.240;16.478;2024-03-02T09:38:05;42.80;;;21.55;;
19593;SDS011;9944;48.240;16.478;2024-03-02T09:42:08;38.45;;;20.20;;
19593;SDS011;9944;48.240;16.478;2024-03-02T09:46:13;38.75;;;19.02;;
19593;SDS011;9944;48.240;16.478;2024-03-02T09:50:17;41.05;;;19.63;;
19593;SDS011;9944;48.240;16.478;2024-03-02T09:54:20;39.35;;;19.85;;
19593;SDS011;9944;48.240;16.478;2024-03-02T09:58:24;40.90;;;20.25;;
19593;SDS011;9944;48.240;16.478;2024-03-02T10:02:28;39.95;;;20.92;;
19593;SDS011;9944;48.240;16.478;2024-03-02T10:06:32;40.33;;;20.27;;
19593;SDS011;9944;48.240;16.478;2024-03-02T10:10:36;42.40;;;20.80;;
19593;SDS011;9944;48.240;16.478;2024-03-02T10:14:42;42.38;;;21.15;;
19593;SDS011;9944;48.240;16.478;2024-03-02T10:18:47;38.92;;;19.92;;
19593;SDS011;9944;48.240;16.478;2024-03-02T10:22:51;37.80;;;20.20;;
19593;SDS011;9944;48.240;16.478;2024-03-02T10:26:54;36.88;;;19.35;;
19593;SDS011;9944;48.240;16.478;2024-03-02T10:30:58;36.13;;;20.05;;
19593;SDS011;9944;48.240;16.478;2024-03-02T10:35:03;37.33;;;19.83;;
19593;SDS011;9944;48.240;16.478;2024-03-02T10:39:08;37.25;;;19.73;;
19593;SDS011;9944;48.240;16.478;2024-03-02T10:43:12;41.95;;;20.25;;
19593;SDS011;9944;48.240;16.478;2024-03-02T10:47:16;43.70;;;21.88;;
19593;SDS011;9944;48.240;16.478;2024-03-02T10:51:23;42.55;;;20.95;;
19593;SDS011;9944;48.240;16.478;2024-03-02T10:55:27;41.13;;;20.00;;
19593;SDS011;9944;48.240;16.478;2024-03-02T10:59:32;37.40;;;20.45;;
19593;SDS011;9944;48.240;16.478;2024-03-02T11:03:37;40.47;;;20.67;;
19593;SDS011;9944;48.240;16.478;2024-03-02T11:07:43;38.15;;;19.10;;
19593;SDS011;9944;48.240;16.478;2024-03-02T11:11:49;34.05;;;18.33;;
19593;SDS011;9944;48.240;16.478;2024-03-02T11:15:59;35.80;;;18.83;;
19593;SDS011;9944;48.240;16.478;2024-03-02T11:20:07;34.88;;;19.52;;
19593;SDS011;9944;48.240;16.478;2024-03-02T11:28:39;33.70;;;17.20;;
19593;SDS011;9944;48.240;16.478;2024-03-02T11:32:42;36.13;;;18.40;;
19593;SDS011;9944;48.240;16.478;2024-03-02T11:36:46;34.28;;;17.83;;
19593;SDS011;9944;48.240;16.478;2024-03-02T11:40:51;32.60;;;17.75;;
19593;SDS011;9944;48.240;16.478;2024-03-02T11:44:55;34.33;;;17.70;;
19593;SDS011;9944;48.240;16.478;2024-03-02T11:48:59;31.23;;;16.73;;
19593;SDS011;9944;48.240;16.478;2024-03-02T11:53:03;30.70;;;16.80;;
19593;SDS011;9944;48.240;16.478;2024-03-02T11:57:10;33.40;;;18.15;;
19593;SDS011;9944;48.240;16.478;2024-03-02T12:01:14;31.17;;;16.83;;
19593;SDS011;9944;48.240;16.478;2024-03-02T12:05:17;29.10;;;17.05;;
19593;SDS011;9944;48.240;16.478;2024-03-02T12:09:23;35.47;;;17.73;;
19593;SDS011;9944;48.240;16.478;2024-03-02T12:13:29;27.83;;;16.20;;
19593;SDS011;9944;48.240;16.478;2024-03-02T12:17:33;28.40;;;16.17;;
19593;SDS011;9944;48.240;16.478;2024-03-02T12:21:37;28.60;;;16.63;;
19593;SDS011;9944;48.240;16.478;2024-03-02T12:25:41;30.83;;;17.00;;
19593;SDS011;9944;48.240;16.478;2024-03-02T12:29:46;28.05;;;16.55;;
19593;SDS011;9944;48.240;16.478;2024-03-02T12:33:50;27.67;;;15.82;;
19593;SDS011;9944;48.240;16.478;2024-03-02T12:37:54;30.90;;;16.45;;
19593;SDS011;9944;48.240;16.478;2024-03-02T12:41:58;28.55;;;15.70;;
19593;SDS011;9944;48.240;16.478;2024-03-02T12:46:02;29.90;;;15.63;;
19593;SDS011;9944;48.240;16.478;2024-03-02T12:50:06;28.83;;;15.93;;
19593;SDS011;9944;48.240;16.478;2024-03-02T12:54:10;30.15;;;16.23;;
19593;SDS011;9944;48.240;16.478;2024-03-02T12:58:18;33.15;;;15.90;;
19593;SDS011;9944;48.240;16.478;2024-03-02T13:02:27;32.60;;;17.00;;
19593;SDS011;9944;48.240;16.478;2024-03-02T13:06:32;27.02;;;15.38;;
19593;SDS011;9944;48.240;16.478;2024-03-02T13:10:42;27.15;;;15.50;;
19593;SDS011;9944;48.240;16.478;2024-03-02T13:14:47;32.50;;;17.50;;
19593;SDS011;9944;48.240;16.478;2024-03-02T13:18:53;29.20;;;16.95;;
19593;SDS011;9944;48.240;16.478;2024-03-02T13:22:56;28.23;;;15.40;;
19593;SDS011;9944;48.240;16.478;2024-03-02T13:26:59;28.02;;;15.85;;
19593;SDS011;9944;48.240;16.478;2024-03-02T13:31:05;28.17;;;15.35;;
19593;SDS011;9944;48.240;16.478;2024-03-02T13:35:10;24.85;;;16.08;;
19593;SDS011;9944;48.240;16.478;2024-03-02T13:39:14;27.52;;;15.48;;
19593;SDS011;9944;48.240;16.478;2024-03-02T13:43:17;29.15;;;15.45;;
19593;SDS011;9944;48.240;16.478;2024-03-02T13:47:21;26.63;;;15.68;;
19593;SDS011;9944;48.240;16.478;2024-03-02T13:51:26;27.58;;;15.43;;
19593;SDS011;9944;48.240;16.478;2024-03-02T13:55:30;30.13;;;14.80;;
19593;SDS011;9944;48.240;16.478;2024-03-02T13:59:33;30.67;;;15.60;;
19593;SDS011;9944;48.240;16.478;2024-03-02T14:03:38;29.35;;;16.42;;
19593;SDS011;9944;48.240;16.478;2024-03-02T14:07:42;29.83;;;15.57;;
19593;SDS011;9944;48.240;16.478;2024-03-02T14:11:47;29.77;;;15.80;;
19593;SDS011;9944;48.240;16.478;2024-03-02T14:15:52;28.38;;;17.08;;
19593;SDS011;9944;48.240;16.478;2024-03-02T14:19:55;30.88;;;16.98;;
19593;SDS011;9944;48.240;16.478;2024-03-02T14:24:01;30.13;;;16.40;;
19593;SDS011;9944;48.240;16.478;2024-03-02T14:28:05;31.02;;;16.90;;
19593;SDS011;9944;48.240;16.478;2024-03-02T14:32:28;32.08;;;16.70;;
19593;SDS011;9944;48.240;16.478;2024-03-02T14:36:32;29.33;;;16.48;;
19593;SDS011;9944;48.240;16.478;2024-03-02T14:40:37;31.02;;;16.33;;
19593;SDS011;9944;48.240;16.478;2024-03-02T14:44:40;31.88;;;17.67;;
19593;SDS011;9944;48.240;16.478;2024-03-02T14:48:43;30.15;;;16.80;;
19593;SDS011;9944;48.240;16.478;2024-03-02T14:52:48;29.45;;;16.67;;
19593;SDS011;9944;48.240;16.478;2024-03-02T14:56:52;35.95;;;17.35;;
19593;SDS011;9944;48.240;16.478;2024-03-02T15:00:56;29.58;;;16.17;;
19593;SDS011;9944;48.240;16.478;2024-03-02T15:04:59;31.65;;;16.63;;
19593;SDS011;9944;48.240;16.478;2024-03-02T15:09:03;28.25;;;16.15;;
19593;SDS011;9944;48.240;16.478;2024-03-02T15:13:08;30.13;;;15.77;;
19593;SDS011;9944;48.240;16.478;2024-03-02T15:17:12;27.70;;;16.10;;
19593;SDS011;9944;48.240;16.478;2024-03-02T15:21:17;31.00;;;16.27;;
19593;SDS011;9944;48.240;16.478;2024-03-02T15:25:23;30.35;;;16.20;;
19593;SDS011;9944;48.240;16.478;2024-03-02T15:29:28;28.80;;;16.33;;
19593;SDS011;9944;48.240;16.478;2024-03-02T15:33:32;30.17;;;15.38;;
19593;SDS011;9944;48.240;16.478;2024-03-02T15:37:36;30.10;;;16.15;;
19593;SDS011;9944;48.240;16.478;2024-03-02T15:41:39;26.58;;;15.05;;
19593;SDS011;9944;48.240;16.478;2024-03-02T15:45:44;28.70;;;15.25;;
19593;SDS011;9944;48.240;16.478;2024-03-02T15:49:48;29.45;;;14.63;;
19593;SDS011;9944;48.240;16.478;2024-03-02T15:53:52;26.45;;;15.15;;
19593;SDS011;9944;48.240;16.478;2024-03-02T15:57:56;25.67;;;13.88;;
19593;SDS011;9944;48.240;16.478;2024-03-02T16:02:01;24.30;;;14.20;;
19593;SDS011;9944;48.240;16.478;2024-03-02T16:06:06;23.48;;;13.38;;
19593;SDS011;9944;48.240;16.478;2024-03-02T16:10:09;22.20;;;12.80;;
19593;SDS011;9944;48.240;16.478;2024-03-02T16:14:13;25.58;;;13.05;;
19593;SDS011;9944;48.240;16.478;2024-03-02T16:18:19;22.52;;;13.93;;
19593;SDS011;9944;48.240;16.478;2024-03-02T16:22:22;22.50;;;13.57;;
19593;SDS011;9944;48.240;16.478;2024-03-02T16:26:26;22.50;;;12.32;;
19593;SDS011;9944;48.240;16.478;2024-03-02T16:30:29;20.30;;;11.60;;
19593;SDS011;9944;48.240;16.478;2024-03-02T16:34:34;23.08;;;12.43;;
19593;SDS011;9944;48.240;16.478;2024-03-02T16:38:38;22.13;;;11.85;;
19593;SDS011;9944;48.240;16.478;2024-03-02T16:42:42;19.38;;;11.80;;
19593;SDS011;9944;48.240;16.478;2024-03-02T16:46:45;19.80;;;11.15;;
19593;SDS011;9944;48.240;16.478;2024-03-02T16:50:51;21.15;;;12.02;;
19593;SDS011;9944;48.240;16.478;2024-03-02T16:54:54;22.23;;;12.13;;
19593;SDS011;9944;48.240;16.478;2024-03-02T16:59:01;20.02;;;11.55;;
19593;SDS011;9944;48.240;16.478;2024-03-02T17:03:05;22.13;;;11.60;;
19593;SDS011;9944;48.240;16.478;2024-03-02T17:07:10;23.55;;;12.43;;
19593;SDS011;9944;48.240;16.478;2024-03-02T17:11:14;22.67;;;12.70;;
19593;SDS011;9944;48.240;16.478;2024-03-02T17:15:17;21.55;;;11.90;;
19593;SDS011;9944;48.240;16.478;2024-03-02T17:19:21;24.80;;;11.57;;
19593;SDS011;9944;48.240;16.478;2024-03-02T17:23:25;22.98;;;12.40;;
19593;SDS011;9944;48.240;16.478;2024-03-02T17:27:33;20.13;;;11.98;;
19593;SDS011;9944;48.240;16.478;2024-03-02T17:31:36;19.15;;;11.35;;
19593;SDS011;9944;48.240;16.478;2024-03-02T17:35:39;23.48;;;12.70;;
19593;SDS011;9944;48.240;16.478;2024-03-02T17:39:44;21.10;;;12.07;;
19593;SDS011;9944;48.240;16.478;2024-03-02T17:43:49;23.00;;;12.88;;
19593;SDS011;9944;48.240;16.478;2024-03-02T17:47:52;22.48;;;12.15;;
19593;SDS011;9944;48.240;16.478;2024-03-02T17:51:56;19.92;;;12.27;;
19593;SDS011;9944;48.240;16.478;2024-03-02T17:56:00;24.75;;;12.50;;
19593;SDS011;9944;48.240;16.478;2024-03-02T18:00:04;22.27;;;12.98;;
19593;SDS011;9944;48.240;16.478;2024-03-02T18:04:12;20.52;;;12.35;;
19593;SDS011;9944;48.240;16.478;2024-03-02T18:08:15;23.55;;;12.65;;
19593;SDS011;9944;48.240;16.478;2024-03-02T18:12:20;21.42;;;11.68;;
19593;SDS011;9944;48.240;16.478;2024-03-02T18:16:24;20.67;;;11.95;;
19593;SDS011;9944;48.240;16.478;2024-03-02T18:20:27;18.98;;;11.82;;
19593;SDS011;9944;48.240;16.478;2024-03-02T18:24:31;19.13;;;11.15;;
19593;SDS011;9944;48.240;16.478;2024-03-02T18:28:39;20.60;;;11.05;;
19593;SDS011;9944;48.240;16.478;2024-03-02T18:32:43;20.52;;;10.55;;
19593;SDS011;9944;48.240;16.478;2024-03-02T18:36:46;20.30;;;11.13;;
19593;SDS011;9944;48.240;16.478;2024-03-02T18:40:51;20.58;;;11.13;;
19593;SDS011;9944;48.240;16.478;2024-03-02T18:44:55;20.55;;;11.43;;
19593;SDS011;9944;48.240;16.478;2024-03-02T18:48:59;23.40;;;12.00;;
19593;SDS011;9944;48.240;16.478;2024-03-02T18:53:02;17.23;;;10.70;;
19593;SDS011;9944;48.240;16.478;2024-03-02T18:57:06;21.48;;;11.80;;
19593;SDS011;9944;48.240;16.478;2024-03-02T19:01:12;21.23;;;11.73;;
19593;SDS011;9944;48.240;16.478;2024-03-02T19:05:17;16.52;;;10.68;;
19593;SDS011;9944;48.240;16.478;2024-03-02T19:09:20;19.58;;;11.25;;
19593;SDS011;9944;48.240;16.478;2024-03-02T19:13:24;19.67;;;10.40;;
19593;SDS011;9944;48.240;16.478;2024-03-02T19:17:29;16.52;;;10.02;;
19593;SDS011;9944;48.240;16.478;2024-03-02T19:21:33;17.85;;;11.20;;
19593;SDS011;9944;48.240;16.478;2024-03-02T19:25:36;17.67;;;10.35;;
19593;SDS011;9944;48.240;16.478;2024-03-02T19:29:40;17.65;;;10.45;;
19593;SDS011;9944;48.240;16.478;2024-03-02T19:33:44;18.23;;;10.35;;
19593;SDS011;9944;48.240;16.478;2024-03-02T19:37:48;19.25;;;10.73;;
19593;SDS011;9944;48.240;16.478;2024-03-02T19:41:52;18.27;;;10.90;;
19593;SDS011;9944;48.240;16.478;2024-03-02T19:45:56;18.55;;;11.23;;
19593;SDS011;9944;48.240;16.478;2024-03-02T19:50:01;19.08;;;11.65;;
19593;SDS011;9944;48.240;16.478;2024-03-02T19:54:06;18.77;;;10.95;;
19593;SDS011;9944;48.240;16.478;2024-03-02T19:58:09;21.20;;;11.38;;
19593;SDS011;9944;48.240;16.478;2024-03-02T20:02:13;20.02;;;11.13;;
19593;SDS011;9944;48.240;16.478;2024-03-02T20:06:20;23.42;;;11.98;;
19593;SDS011;9944;48.240;16.478;2024-03-02T20:10:24;24.02;;;12.05;;
19593;SDS011;9944;48.240;16.478;2024-03-02T20:14:27;24.02;;;12.38;;
19593;SDS011;9944;48.240;16.478;2024-03-02T20:18:30;23.55;;;12.23;;
19593;SDS011;9944;48.240;16.478;2024-03-02T20:22:35;22.42;;;12.10;;
19593;SDS011;9944;48.240;16.478;2024-03-02T20:26:38;23.00;;;12.70;;
19593;SDS011;9944;48.240;16.478;2024-03-02T20:30:41;21.88;;;12.20;;
19593;SDS011;9944;48.240;16.478;2024-03-02T20:34:45;22.55;;;12.13;;
19593;SDS011;9944;48.240;16.478;2024-03-02T20:38:49;22.67;;;12.18;;
19593;SDS011;9944;48.240;16.478;2024-03-02T20:42:53;21.48;;;12.35;;
19593;SDS011;9944;48.240;16.478;2024-03-02T20:46:58;23.48;;;12.32;;
19593;SDS011;9944;48.240;16.478;2024-03-02T20:51:02;20.55;;;11.45;;
19593;SDS011;9944;48.240;16.478;2024-03-02T20:55:07;23.25;;;12.48;;
19593;SDS011;9944;48.240;16.478;2024-03-02T20:59:13;22.63;;;12.55;;
19593;SDS011;9944;48.240;16.478;2024-03-02T21:03:16;25.20;;;12.25;;
19593;SDS011;9944;48.240;16.478;2024-03-02T21:07:19;23.83;;;12.45;;
19593;SDS011;9944;48.240;16.478;2024-03-02T21:11:24;23.75;;;12.00;;
19593;SDS011;9944;48.240;16.478;2024-03-02T21:15:28;20.90;;;12.07;;
19593;SDS011;9944;48.240;16.478;2024-03-02T21:19:31;24.45;;;12.38;;
19593;SDS011;9944;48.240;16.478;2024-03-02T21:23:37;26.08;;;12.30;;
19593;SDS011;9944;48.240;16.478;2024-03-02T21:27:43;24.00;;;11.32;;
19593;SDS011;9944;48.240;16.478;2024-03-02T21:31:49;25.92;;;12.40;;
19593;SDS011;9944;48.240;16.478;2024-03-02T21:35:52;25.08;;;13.13;;
19593;SDS011;9944;48.240;16.478;2024-03-02T21:39:56;22.42;;;12.50;;
19593;SDS011;9944;48.240;16.478;2024-03-02T21:44:01;21.83;;;12.10;;
19593;SDS011;9944;48.240;16.478;2024-03-02T21:48:05;27.08;;;12.75;;
19593;SDS011;9944;48.240;16.478;2024-03-02T21:52:08;24.27;;;12.90;;
19593;SDS011;9944;48.240;16.478;2024-03-02T21:56:12;25.40;;;13.00;;
19593;SDS011;9944;48.240;16.478;2024-03-02T22:00:17;26.25;;;13.15;;
19593;SDS011;9944;48.240;16.478;2024-03-02T22:04:21;25.85;;;13.40;;
19593;SDS011;9944;48.240;16.478;2024-03-02T22:08:24;30.60;;;14.73;;
19593;SDS011;9944;48.240;16.478;2024-03-02T22:12:29;24.27;;;13.05;;
19593;SDS011;9944;48.240;16.478;2024-03-02T22:16:33;27.50;;;13.00;;
19593;SDS011;9944;48.240;16.478;2024-03-02T22:20:37;26.58;;;13.95;;
19593;SDS011;9944;48.240;16.478;2024-03-02T22:24:40;28.00;;;13.85;;
19593;SDS011;9944;48.240;16.478;2024-03-02T22:28:44;29.35;;;14.35;;
19593;SDS011;9944;48.240;16.478;2024-03-02T22:32:49;32.35;;;15.35;;
19593;SDS011;9944;48.240;16.478;2024-03-02T22:36:52;33.63;;;16.08;;
19593;SDS011;9944;48.240;16.478;2024-03-02T22:40:55;37.75;;;18.13;;
19593;SDS011;9944;48.240;16.478;2024-03-02T22:44:59;35.85;;;17.75;;
19593;SDS011;9944;48.240;16.478;2024-03-02T22:49:04;35.05;;;16.55;;
19593;SDS011;9944;48.240;16.478;2024-03-02T22:53:07;33.30;;;16.13;;
19593;SDS011;9944;48.240;16.478;2024-03-02T22:57:10;33.67;;;16.48;;
19593;SDS011;9944;48.240;16.478;2024-03-02T23:01:18;33.97;;;15.45;;
19593;SDS011;9944;48.240;16.478;2024-03-02T23:05:25;32.47;;;16.13;;
19593;SDS011;9944;48.240;16.478;2024-03-02T23:09:29;30.27;;;15.55;;
19593;SDS011;9944;48.240;16.478;2024-03-02T23:13:32;32.92;;;16.40;;
19593;SDS011;9944;48.240;16.478;2024-03-02T23:17:35;29.40;;;15.70;;
19593;SDS011;9944;48.240;16.478;2024-03-02T23:21:40;30.50;;;15.52;;
19593;SDS011;9944;48.240;16.478;2024-03-02T23:25:44;34.17;;;15.98;;
19593;SDS011;9944;48.240;16.478;2024-03-02T23:34:13;34.08;;;16.17;;
19593;SDS011;9944;48.240;16.478;2024-03-02T23:38:17;29.23;;;15.43;;
19593;SDS011;9944;48.240;16.478;2024-03-02T23:42:21;35.22;;;15.20;;
19593;SDS011;9944;48.240;16.478;2024-03-02T23:46:24;32.70;;;15.50;;
19593;SDS011;9944;48.240;16.478;2024-03-02T23:50:27;30.55;;;16.15;;
19593;SDS011;9944;48.240;16.478;2024-03-02T23:54:32;33.58;;;16.35;;
19593;SDS011;9944;48.240;16.478;2024-03-02T23:58:35;32.83;;;16.20;;
